sensor_id;sensor_type;location;lat;lon;timestamp;temperature;humidity
34833;DHT22;55941;50.800;4.342;2022-08-27T00:02:18;19.40;98.70
34833;DHT22;55941;50.800;4.342;2022-08-27T00:04:47;19.40;98.70
34833;DHT22;55941;50.800;4.342;2022-08-27T00:07:16;19.30;98.90
34833;DHT22;55941;50.800;4.342;2022-08-27T00:09:42;19.20;99.00
34833;DHT22;55941;50.800;4.342;2022-08-27T00:12:09;19.20;99.00
34833;DHT22;55941;50.800;4.342;2022-08-27T00:14:37;19.20;99.00
34833;DHT22;55941;50.800;4.342;2022-08-27T00:17:05;19.10;99.30
34833;DHT22;55941;50.800;4.342;2022-08-27T00:19:31;19.00;99.60
34833;DHT22;55941;50.800;4.342;2022-08-27T00:21:59;19.00;99.90
34833;DHT22;55941;50.800;4.342;2022-08-27T00:24:27;19.00;99.70
34833;DHT22;55941;50.800;4.342;2022-08-27T00:26:53;19.20;99.30
34833;DHT22;55941;50.800;4.342;2022-08-27T00:29:20;19.20;99.40
34833;DHT22;55941;50.800;4.342;2022-08-27T00:31:45;19.10;99.20
34833;DHT22;55941;50.800;4.342;2022-08-27T00:34:13;19.10;99.30
34833;DHT22;55941;50.800;4.342;2022-08-27T00:36:41;19.20;99.20
34833;DHT22;55941;50.800;4.342;2022-08-27T00:39:07;19.20;99.10
34833;DHT22;55941;50.800;4.342;2022-08-27T00:41:33;19.20;99.10
34833;DHT22;55941;50.800;4.342;2022-08-27T00:44:01;19.30;99.10
34833;DHT22;55941;50.800;4.342;2022-08-27T00:46:33;19.30;98.80
34833;DHT22;55941;50.800;4.342;2022-08-27T00:49:05;19.30;98.80
34833;DHT22;55941;50.800;4.342;2022-08-27T00:51:34;19.30;98.80
34833;DHT22;55941;50.800;4.342;2022-08-27T00:54:04;19.30;98.90
34833;DHT22;55941;50.800;4.342;2022-08-27T00:56:39;19.30;98.90
34833;DHT22;55941;50.800;4.342;2022-08-27T00:59:10;19.30;98.80
34833;DHT22;55941;50.800;4.342;2022-08-27T01:01:42;19.40;98.60
34833;DHT22;55941;50.800;4.342;2022-08-27T01:04:28;19.40;98.40
34833;DHT22;55941;50.800;4.342;2022-08-27T01:06:55;19.50;98.20
34833;DHT22;55941;50.800;4.342;2022-08-27T01:09:22;19.40;98.20
34833;DHT22;55941;50.800;4.342;2022-08-27T01:11:49;19.30;98.60
34833;DHT22;55941;50.800;4.342;2022-08-27T01:14:17;19.20;98.80
34833;DHT22;55941;50.800;4.342;2022-08-27T01:16:48;19.20;99.00
34833;DHT22;55941;50.800;4.342;2022-08-27T01:24:43;19.00;99.30
34833;DHT22;55941;50.800;4.342;2022-08-27T01:27:12;19.00;99.30
34833;DHT22;55941;50.800;4.342;2022-08-27T01:29:41;18.90;99.60
34833;DHT22;55941;50.800;4.342;2022-08-27T01:32:13;18.90;99.70
34833;DHT22;55941;50.800;4.342;2022-08-27T01:34:40;18.80;99.90
34833;DHT22;55941;50.800;4.342;2022-08-27T01:37:06;18.80;99.90
34833;DHT22;55941;50.800;4.342;2022-08-27T01:39:37;18.70;99.90
34833;DHT22;55941;50.800;4.342;2022-08-27T01:42:13;18.60;99.90
34833;DHT22;55941;50.800;4.342;2022-08-27T01:44:43;18.70;99.90
34833;DHT22;55941;50.800;4.342;2022-08-27T01:47:13;18.70;99.90
34833;DHT22;55941;50.800;4.342;2022-08-27T01:49:40;18.60;99.90
34833;DHT22;55941;50.800;4.342;2022-08-27T01:52:05;18.40;99.90
34833;DHT22;55941;50.800;4.342;2022-08-27T01:54:32;18.40;99.90
34833;DHT22;55941;50.800;4.342;2022-08-27T01:56:59;18.30;99.90
34833;DHT22;55941;50.800;4.342;2022-08-27T01:59:25;18.30;99.90
34833;DHT22;55941;50.800;4.342;2022-08-27T02:01:53;18.20;99.90
34833;DHT22;55941;50.800;4.342;2022-08-27T02:04:20;18.20;99.90
34833;DHT22;55941;50.800;4.342;2022-08-27T02:06:48;18.10;99.90
34833;DHT22;55941;50.800;4.342;2022-08-27T02:09:14;18.10;99.90
34833;DHT22;55941;50.800;4.342;2022-08-27T02:11:40;18.00;99.90
34833;DHT22;55941;50.800;4.342;2022-08-27T02:14:06;18.10;99.90
34833;DHT22;55941;50.800;4.342;2022-08-27T02:16:32;18.10;99.90
34833;DHT22;55941;50.800;4.342;2022-08-27T02:18:58;18.00;99.90
34833;DHT22;55941;50.800;4.342;2022-08-27T02:21:24;18.00;99.90
34833;DHT22;55941;50.800;4.342;2022-08-27T02:23:50;18.20;99.90
34833;DHT22;55941;50.800;4.342;2022-08-27T02:26:17;18.00;99.90
34833;DHT22;55941;50.800;4.342;2022-08-27T02:28:43;17.90;99.90
34833;DHT22;55941;50.800;4.342;2022-08-27T02:31:09;17.80;99.90
34833;DHT22;55941;50.800;4.342;2022-08-27T02:33:35;17.80;99.90
34833;DHT22;55941;50.800;4.342;2022-08-27T02:36:02;17.70;99.90
34833;DHT22;55941;50.800;4.342;2022-08-27T02:38:28;17.80;99.90
34833;DHT22;55941;50.800;4.342;2022-08-27T02:40:54;17.70;99.90
34833;DHT22;55941;50.800;4.342;2022-08-27T02:43:20;17.70;99.90
34833;DHT22;55941;50.800;4.342;2022-08-27T02:45:48;17.60;99.90
34833;DHT22;55941;50.800;4.342;2022-08-27T02:48:19;17.60;99.90
34833;DHT22;55941;50.800;4.342;2022-08-27T02:50:44;17.50;99.90
34833;DHT22;55941;50.800;4.342;2022-08-27T02:53:11;17.50;99.90
34833;DHT22;55941;50.800;4.342;2022-08-27T02:55:37;17.60;99.90
34833;DHT22;55941;50.800;4.342;2022-08-27T02:58:04;17.50;99.90
34833;DHT22;55941;50.800;4.342;2022-08-27T03:00:30;17.50;99.90
34833;DHT22;55941;50.800;4.342;2022-08-27T03:02:58;17.30;99.90
34833;DHT22;55941;50.800;4.342;2022-08-27T03:05:25;17.30;99.90
34833;DHT22;55941;50.800;4.342;2022-08-27T03:07:51;17.40;99.90
34833;DHT22;55941;50.800;4.342;2022-08-27T03:10:18;17.40;99.90
34833;DHT22;55941;50.800;4.342;2022-08-27T03:12:44;17.40;99.90
34833;DHT22;55941;50.800;4.342;2022-08-27T03:15:14;17.40;99.90
34833;DHT22;55941;50.800;4.342;2022-08-27T03:17:40;17.50;99.90
34833;DHT22;55941;50.800;4.342;2022-08-27T03:20:26;17.50;99.90
34833;DHT22;55941;50.800;4.342;2022-08-27T03:22:52;17.50;99.90
34833;DHT22;55941;50.800;4.342;2022-08-27T03:25:19;17.50;99.90
34833;DHT22;55941;50.800;4.342;2022-08-27T03:27:46;17.40;99.90
34833;DHT22;55941;50.800;4.342;2022-08-27T03:30:16;17.20;99.90
34833;DHT22;55941;50.800;4.342;2022-08-27T03:32:44;17.20;99.90
34833;DHT22;55941;50.800;4.342;2022-08-27T03:35:11;17.30;99.90
34833;DHT22;55941;50.800;4.342;2022-08-27T03:37:38;17.30;99.90
34833;DHT22;55941;50.800;4.342;2022-08-27T03:40:06;17.30;99.90
34833;DHT22;55941;50.800;4.342;2022-08-27T03:42:34;17.30;99.90
34833;DHT22;55941;50.800;4.342;2022-08-27T03:45:00;17.30;99.90
34833;DHT22;55941;50.800;4.342;2022-08-27T03:47:26;17.40;99.90
34833;DHT22;55941;50.800;4.342;2022-08-27T03:49:52;17.40;99.90
34833;DHT22;55941;50.800;4.342;2022-08-27T03:52:18;17.40;99.90
34833;DHT22;55941;50.800;4.342;2022-08-27T03:54:46;17.40;99.90
34833;DHT22;55941;50.800;4.342;2022-08-27T03:57:12;17.40;99.90
34833;DHT22;55941;50.800;4.342;2022-08-27T03:59:38;17.40;99.90
34833;DHT22;55941;50.800;4.342;2022-08-27T04:02:04;17.40;99.90
34833;DHT22;55941;50.800;4.342;2022-08-27T04:04:30;17.30;99.90
34833;DHT22;55941;50.800;4.342;2022-08-27T04:06:56;17.40;99.90
34833;DHT22;55941;50.800;4.342;2022-08-27T04:09:22;17.40;99.90
34833;DHT22;55941;50.800;4.342;2022-08-27T04:11:49;17.40;99.90
34833;DHT22;55941;50.800;4.342;2022-08-27T04:14:16;17.40;99.90
34833;DHT22;55941;50.800;4.342;2022-08-27T04:16:43;17.40;99.90
34833;DHT22;55941;50.800;4.342;2022-08-27T04:19:10;17.40;99.90
34833;DHT22;55941;50.800;4.342;2022-08-27T04:21:37;17.30;99.90
34833;DHT22;55941;50.800;4.342;2022-08-27T04:24:03;17.40;99.90
34833;DHT22;55941;50.800;4.342;2022-08-27T04:26:30;17.40;99.90
34833;DHT22;55941;50.800;4.342;2022-08-27T04:28:57;17.50;99.90
34833;DHT22;55941;50.800;4.342;2022-08-27T04:31:23;17.50;99.90
34833;DHT22;55941;50.800;4.342;2022-08-27T04:33:51;17.40;99.90
34833;DHT22;55941;50.800;4.342;2022-08-27T04:36:19;17.40;99.90
34833;DHT22;55941;50.800;4.342;2022-08-27T04:38:46;17.30;99.90
34833;DHT22;55941;50.800;4.342;2022-08-27T04:41:12;17.40;99.90
34833;DHT22;55941;50.800;4.342;2022-08-27T04:43:46;17.40;99.90
34833;DHT22;55941;50.800;4.342;2022-08-27T04:46:13;17.20;99.90
34833;DHT22;55941;50.800;4.342;2022-08-27T04:48:39;17.20;99.90
34833;DHT22;55941;50.800;4.342;2022-08-27T04:51:06;17.10;99.90
34833;DHT22;55941;50.800;4.342;2022-08-27T04:53:32;17.20;99.90
34833;DHT22;55941;50.800;4.342;2022-08-27T04:56:00;17.20;99.90
34833;DHT22;55941;50.800;4.342;2022-08-27T04:58:27;17.20;99.90
34833;DHT22;55941;50.800;4.342;2022-08-27T05:00:55;17.30;99.90
34833;DHT22;55941;50.800;4.342;2022-08-27T05:03:24;17.20;99.90
34833;DHT22;55941;50.800;4.342;2022-08-27T05:05:51;17.30;99.90
34833;DHT22;55941;50.800;4.342;2022-08-27T05:08:19;17.20;99.90
34833;DHT22;55941;50.800;4.342;2022-08-27T05:10:47;17.20;99.90
34833;DHT22;55941;50.800;4.342;2022-08-27T05:13:15;17.40;99.90
34833;DHT22;55941;50.800;4.342;2022-08-27T05:15:44;17.50;99.90
34833;DHT22;55941;50.800;4.342;2022-08-27T05:18:10;17.60;99.90
34833;DHT22;55941;50.800;4.342;2022-08-27T05:20:55;17.60;99.90
34833;DHT22;55941;50.800;4.342;2022-08-27T05:23:22;17.60;99.90
34833;DHT22;55941;50.800;4.342;2022-08-27T05:25:50;17.60;99.90
34833;DHT22;55941;50.800;4.342;2022-08-27T05:28:17;17.80;99.90
34833;DHT22;55941;50.800;4.342;2022-08-27T05:30:47;17.80;99.90
34833;DHT22;55941;50.800;4.342;2022-08-27T05:33:19;17.90;99.90
34833;DHT22;55941;50.800;4.342;2022-08-27T05:35:49;17.90;99.90
34833;DHT22;55941;50.800;4.342;2022-08-27T05:38:19;17.90;99.90
34833;DHT22;55941;50.800;4.342;2022-08-27T05:40:46;17.80;99.90
34833;DHT22;55941;50.800;4.342;2022-08-27T05:43:14;17.70;99.90
34833;DHT22;55941;50.800;4.342;2022-08-27T05:45:44;17.80;99.90
34833;DHT22;55941;50.800;4.342;2022-08-27T05:48:11;17.80;99.90
34833;DHT22;55941;50.800;4.342;2022-08-27T05:50:38;17.80;99.90
34833;DHT22;55941;50.800;4.342;2022-08-27T05:53:06;17.70;99.90
34833;DHT22;55941;50.800;4.342;2022-08-27T05:55:37;17.80;99.90
34833;DHT22;55941;50.800;4.342;2022-08-27T05:58:04;17.70;99.90
34833;DHT22;55941;50.800;4.342;2022-08-27T06:00:30;17.80;99.90
34833;DHT22;55941;50.800;4.342;2022-08-27T06:03:15;17.80;99.90
34833;DHT22;55941;50.800;4.342;2022-08-27T06:05:41;18.00;99.90
34833;DHT22;55941;50.800;4.342;2022-08-27T06:08:07;17.90;99.90
34833;DHT22;55941;50.800;4.342;2022-08-27T06:10:33;17.90;99.90
34833;DHT22;55941;50.800;4.342;2022-08-27T06:13:00;17.90;99.90
34833;DHT22;55941;50.800;4.342;2022-08-27T06:15:31;18.10;99.90
34833;DHT22;55941;50.800;4.342;2022-08-27T06:17:58;18.00;99.90
34833;DHT22;55941;50.800;4.342;2022-08-27T06:20:24;18.10;99.90
34833;DHT22;55941;50.800;4.342;2022-08-27T06:22:52;18.10;99.90
34833;DHT22;55941;50.800;4.342;2022-08-27T06:25:19;18.20;99.90
34833;DHT22;55941;50.800;4.342;2022-08-27T06:27:45;18.20;99.90
34833;DHT22;55941;50.800;4.342;2022-08-27T06:30:12;18.30;99.90
34833;DHT22;55941;50.800;4.342;2022-08-27T06:32:38;18.30;99.90
34833;DHT22;55941;50.800;4.342;2022-08-27T06:35:07;18.40;99.90
34833;DHT22;55941;50.800;4.342;2022-08-27T06:37:33;18.40;99.90
34833;DHT22;55941;50.800;4.342;2022-08-27T06:39:59;18.40;99.90
34833;DHT22;55941;50.800;4.342;2022-08-27T06:42:26;18.50;99.90
34833;DHT22;55941;50.800;4.342;2022-08-27T06:44:52;18.70;99.90
34833;DHT22;55941;50.800;4.342;2022-08-27T06:47:19;18.70;99.90
34833;DHT22;55941;50.800;4.342;2022-08-27T06:49:45;18.80;99.90
34833;DHT22;55941;50.800;4.342;2022-08-27T06:52:13;18.90;99.90
34833;DHT22;55941;50.800;4.342;2022-08-27T06:54:39;18.90;99.90
34833;DHT22;55941;50.800;4.342;2022-08-27T06:57:06;18.90;99.90
34833;DHT22;55941;50.800;4.342;2022-08-27T06:59:32;18.90;99.90
34833;DHT22;55941;50.800;4.342;2022-08-27T07:01:58;18.80;99.90
34833;DHT22;55941;50.800;4.342;2022-08-27T07:04:25;18.80;99.90
34833;DHT22;55941;50.800;4.342;2022-08-27T07:06:51;18.80;99.90
34833;DHT22;55941;50.800;4.342;2022-08-27T07:09:17;18.80;99.90
34833;DHT22;55941;50.800;4.342;2022-08-27T07:11:45;18.90;99.90
34833;DHT22;55941;50.800;4.342;2022-08-27T07:14:11;18.90;99.90
34833;DHT22;55941;50.800;4.342;2022-08-27T07:16:37;18.90;99.90
34833;DHT22;55941;50.800;4.342;2022-08-27T07:19:04;18.90;99.90
34833;DHT22;55941;50.800;4.342;2022-08-27T07:21:32;19.00;99.90
34833;DHT22;55941;50.800;4.342;2022-08-27T07:24:00;19.10;99.90
34833;DHT22;55941;50.800;4.342;2022-08-27T07:26:30;19.10;99.90
34833;DHT22;55941;50.800;4.342;2022-08-27T07:28:56;19.10;99.90
34833;DHT22;55941;50.800;4.342;2022-08-27T07:31:22;19.20;99.90
34833;DHT22;55941;50.800;4.342;2022-08-27T07:33:49;19.30;99.90
34833;DHT22;55941;50.800;4.342;2022-08-27T07:36:15;19.30;99.90
34833;DHT22;55941;50.800;4.342;2022-08-27T07:38:42;19.30;99.90
34833;DHT22;55941;50.800;4.342;2022-08-27T07:41:12;19.30;99.90
34833;DHT22;55941;50.800;4.342;2022-08-27T07:43:38;19.40;99.90
34833;DHT22;55941;50.800;4.342;2022-08-27T07:46:23;19.50;99.90
34833;DHT22;55941;50.800;4.342;2022-08-27T07:48:50;19.60;99.10
34833;DHT22;55941;50.800;4.342;2022-08-27T07:51:18;19.70;98.60
34833;DHT22;55941;50.800;4.342;2022-08-27T07:53:45;19.80;98.20
34833;DHT22;55941;50.800;4.342;2022-08-27T07:56:12;19.70;98.10
34833;DHT22;55941;50.800;4.342;2022-08-27T07:58:39;19.90;96.70
34833;DHT22;55941;50.800;4.342;2022-08-27T08:01:05;20.00;96.60
34833;DHT22;55941;50.800;4.342;2022-08-27T08:03:31;20.10;96.60
34833;DHT22;55941;50.800;4.342;2022-08-27T08:06:05;20.10;96.40
34833;DHT22;55941;50.800;4.342;2022-08-27T08:08:34;20.20;96.30
34833;DHT22;55941;50.800;4.342;2022-08-27T08:11:00;20.20;96.30
34833;DHT22;55941;50.800;4.342;2022-08-27T08:13:28;20.40;96.20
34833;DHT22;55941;50.800;4.342;2022-08-27T08:15:55;20.40;95.70
34833;DHT22;55941;50.800;4.342;2022-08-27T08:18:22;20.70;94.00
34833;DHT22;55941;50.800;4.342;2022-08-27T08:20:47;20.70;94.10
34833;DHT22;55941;50.800;4.342;2022-08-27T08:23:13;20.70;94.20
34833;DHT22;55941;50.800;4.342;2022-08-27T08:25:40;20.90;93.40
34833;DHT22;55941;50.800;4.342;2022-08-27T08:28:06;21.00;92.90
34833;DHT22;55941;50.800;4.342;2022-08-27T08:30:32;21.00;93.40
34833;DHT22;55941;50.800;4.342;2022-08-27T08:32:58;20.90;93.20
34833;DHT22;55941;50.800;4.342;2022-08-27T08:35:24;21.20;93.00
34833;DHT22;55941;50.800;4.342;2022-08-27T08:37:52;21.20;92.80
34833;DHT22;55941;50.800;4.342;2022-08-27T08:40:30;21.40;92.50
34833;DHT22;55941;50.800;4.342;2022-08-27T08:42:57;21.30;91.40
34833;DHT22;55941;50.800;4.342;2022-08-27T08:45:30;21.30;91.20
34833;DHT22;55941;50.800;4.342;2022-08-27T08:48:09;21.40;91.10
34833;DHT22;55941;50.800;4.342;2022-08-27T08:54:05;21.30;90.90
34833;DHT22;55941;50.800;4.342;2022-08-27T08:56:54;21.50;90.80
34833;DHT22;55941;50.800;4.342;2022-08-27T08:59:37;21.50;90.90
34833;DHT22;55941;50.800;4.342;2022-08-27T09:02:11;21.60;90.70
34833;DHT22;55941;50.800;4.342;2022-08-27T09:04:37;21.60;90.90
34833;DHT22;55941;50.800;4.342;2022-08-27T09:07:14;21.80;90.20
34833;DHT22;55941;50.800;4.342;2022-08-27T09:12:21;21.90;89.80
34833;DHT22;55941;50.800;4.342;2022-08-27T09:14:54;22.00;89.10
34833;DHT22;55941;50.800;4.342;2022-08-27T09:17:21;22.20;88.50
34833;DHT22;55941;50.800;4.342;2022-08-27T09:19:48;22.20;86.60
34833;DHT22;55941;50.800;4.342;2022-08-27T09:27:56;22.40;86.30
34833;DHT22;55941;50.800;4.342;2022-08-27T09:30:26;22.40;86.90
34833;DHT22;55941;50.800;4.342;2022-08-27T09:33:02;22.30;87.50
34833;DHT22;55941;50.800;4.342;2022-08-27T09:35:40;22.30;86.60
34833;DHT22;55941;50.800;4.342;2022-08-27T09:38:07;22.50;86.10
34833;DHT22;55941;50.800;4.342;2022-08-27T09:40:48;22.50;85.60
34833;DHT22;55941;50.800;4.342;2022-08-27T09:43:22;22.50;85.70
34833;DHT22;55941;50.800;4.342;2022-08-27T09:46:00;22.60;84.70
34833;DHT22;55941;50.800;4.342;2022-08-27T09:48:31;22.80;82.90
34833;DHT22;55941;50.800;4.342;2022-08-27T09:51:05;22.70;83.20
34833;DHT22;55941;50.800;4.342;2022-08-27T09:53:41;22.70;84.00
34833;DHT22;55941;50.800;4.342;2022-08-27T09:56:33;22.70;84.80
34833;DHT22;55941;50.800;4.342;2022-08-27T09:59:24;22.90;82.40
34833;DHT22;55941;50.800;4.342;2022-08-27T10:01:54;23.00;81.90
34833;DHT22;55941;50.800;4.342;2022-08-27T10:04:41;22.90;82.00
34833;DHT22;55941;50.800;4.342;2022-08-27T10:09:49;22.80;82.10
34833;DHT22;55941;50.800;4.342;2022-08-27T10:12:33;23.00;81.90
34833;DHT22;55941;50.800;4.342;2022-08-27T10:15:05;22.90;82.00
34833;DHT22;55941;50.800;4.342;2022-08-27T10:18:02;22.70;82.70
34833;DHT22;55941;50.800;4.342;2022-08-27T10:23:45;22.60;84.00
34833;DHT22;55941;50.800;4.342;2022-08-27T10:26:25;22.70;82.30
34833;DHT22;55941;50.800;4.342;2022-08-27T10:29:16;22.60;82.70
34833;DHT22;55941;50.800;4.342;2022-08-27T10:34:57;22.70;81.80
34833;DHT22;55941;50.800;4.342;2022-08-27T10:37:48;22.80;81.50
34833;DHT22;55941;50.800;4.342;2022-08-27T10:49:32;23.50;78.80
34833;DHT22;55941;50.800;4.342;2022-08-27T10:51:55;23.70;76.90
34833;DHT22;55941;50.800;4.342;2022-08-27T10:54:34;24.00;75.00
34833;DHT22;55941;50.800;4.342;2022-08-27T10:58:05;24.10;75.70
34833;DHT22;55941;50.800;4.342;2022-08-27T11:05:22;24.30;76.10
34833;DHT22;55941;50.800;4.342;2022-08-27T11:08:13;24.30;76.50
34833;DHT22;55941;50.800;4.342;2022-08-27T11:10:53;24.40;75.80
34833;DHT22;55941;50.800;4.342;2022-08-27T11:13:31;24.50;74.50
34833;DHT22;55941;50.800;4.342;2022-08-27T11:16:00;24.50;72.60
34833;DHT22;55941;50.800;4.342;2022-08-27T11:18:53;24.70;71.30
34833;DHT22;55941;50.800;4.342;2022-08-27T11:21:40;24.70;73.40
34833;DHT22;55941;50.800;4.342;2022-08-27T11:24:24;24.70;72.80
34833;DHT22;55941;50.800;4.342;2022-08-27T11:26:56;24.60;73.30
34833;DHT22;55941;50.800;4.342;2022-08-27T11:29:38;24.40;75.10
34833;DHT22;55941;50.800;4.342;2022-08-27T11:35:20;24.10;75.90
34833;DHT22;55941;50.800;4.342;2022-08-27T11:43:42;24.20;75.60
34833;DHT22;55941;50.800;4.342;2022-08-27T11:46:21;24.20;75.40
34833;DHT22;55941;50.800;4.342;2022-08-27T11:49:00;24.10;75.00
34833;DHT22;55941;50.800;4.342;2022-08-27T11:51:36;24.20;75.30
34833;DHT22;55941;50.800;4.342;2022-08-27T11:54:20;24.20;75.50
34833;DHT22;55941;50.800;4.342;2022-08-27T11:56:48;24.30;74.90
34833;DHT22;55941;50.800;4.342;2022-08-27T12:01:55;24.20;75.40
34833;DHT22;55941;50.800;4.342;2022-08-27T12:07:03;24.30;75.30
34833;DHT22;55941;50.800;4.342;2022-08-27T12:15:05;24.50;73.40
34833;DHT22;55941;50.800;4.342;2022-08-27T12:22:56;24.70;72.40
34833;DHT22;55941;50.800;4.342;2022-08-27T12:25:57;24.90;72.90
34833;DHT22;55941;50.800;4.342;2022-08-27T12:28:24;25.00;72.30
34833;DHT22;55941;50.800;4.342;2022-08-27T12:30:50;25.40;71.60
34833;DHT22;55941;50.800;4.342;2022-08-27T12:33:31;25.80;70.90
34833;DHT22;55941;50.800;4.342;2022-08-27T12:36:04;26.00;70.30
34833;DHT22;55941;50.800;4.342;2022-08-27T12:38:45;25.80;71.70
34833;DHT22;55941;50.800;4.342;2022-08-27T12:41:28;25.90;72.40
34833;DHT22;55941;50.800;4.342;2022-08-27T12:44:24;26.00;70.50
34833;DHT22;55941;50.800;4.342;2022-08-27T12:49:20;25.90;69.90
34833;DHT22;55941;50.800;4.342;2022-08-27T12:51:48;25.90;70.60
34833;DHT22;55941;50.800;4.342;2022-08-27T13:05:10;25.30;71.90
34833;DHT22;55941;50.800;4.342;2022-08-27T13:07:44;25.10;71.30
34833;DHT22;55941;50.800;4.342;2022-08-27T13:12:45;25.20;70.50
34833;DHT22;55941;50.800;4.342;2022-08-27T13:15:13;25.30;70.90
34833;DHT22;55941;50.800;4.342;2022-08-27T13:17:44;25.20;71.20
34833;DHT22;55941;50.800;4.342;2022-08-27T13:20:19;25.30;71.70
34833;DHT22;55941;50.800;4.342;2022-08-27T13:22:47;25.50;70.40
34833;DHT22;55941;50.800;4.342;2022-08-27T13:25:28;25.40;71.10
34833;DHT22;55941;50.800;4.342;2022-08-27T13:30:38;25.60;71.60
34833;DHT22;55941;50.800;4.342;2022-08-27T13:33:11;25.90;71.30
34833;DHT22;55941;50.800;4.342;2022-08-27T13:35:40;26.20;69.10
34833;DHT22;55941;50.800;4.342;2022-08-27T13:38:08;26.20;70.30
34833;DHT22;55941;50.800;4.342;2022-08-27T13:40:37;26.00;70.30
34833;DHT22;55941;50.800;4.342;2022-08-27T13:43:14;25.50;70.40
34833;DHT22;55941;50.800;4.342;2022-08-27T13:45:41;25.40;71.00
34833;DHT22;55941;50.800;4.342;2022-08-27T13:48:10;25.30;71.20
34833;DHT22;55941;50.800;4.342;2022-08-27T13:50:37;24.90;72.20
34833;DHT22;55941;50.800;4.342;2022-08-27T13:53:09;24.90;72.00
34833;DHT22;55941;50.800;4.342;2022-08-27T13:55:56;24.60;72.40
34833;DHT22;55941;50.800;4.342;2022-08-27T13:58:29;24.50;73.20
34833;DHT22;55941;50.800;4.342;2022-08-27T14:01:14;24.30;73.10
34833;DHT22;55941;50.800;4.342;2022-08-27T14:03:49;24.10;73.20
34833;DHT22;55941;50.800;4.342;2022-08-27T14:06:23;24.00;74.30
34833;DHT22;55941;50.800;4.342;2022-08-27T14:08:50;24.00;74.60
34833;DHT22;55941;50.800;4.342;2022-08-27T14:11:21;23.80;75.60
34833;DHT22;55941;50.800;4.342;2022-08-27T14:13:48;23.80;75.50
34833;DHT22;55941;50.800;4.342;2022-08-27T14:16:28;23.80;75.30
34833;DHT22;55941;50.800;4.342;2022-08-27T14:19:22;23.80;76.30
34833;DHT22;55941;50.800;4.342;2022-08-27T14:21:49;23.70;76.30
34833;DHT22;55941;50.800;4.342;2022-08-27T14:24:15;23.70;76.60
34833;DHT22;55941;50.800;4.342;2022-08-27T14:26:41;23.70;76.80
34833;DHT22;55941;50.800;4.342;2022-08-27T14:29:07;23.70;76.00
34833;DHT22;55941;50.800;4.342;2022-08-27T14:31:32;23.70;76.60
34833;DHT22;55941;50.800;4.342;2022-08-27T14:33:58;23.80;76.20
34833;DHT22;55941;50.800;4.342;2022-08-27T14:36:27;23.70;77.00
34833;DHT22;55941;50.800;4.342;2022-08-27T14:38:54;23.80;76.60
34833;DHT22;55941;50.800;4.342;2022-08-27T14:41:20;23.90;76.90
34833;DHT22;55941;50.800;4.342;2022-08-27T14:43:47;23.90;76.70
34833;DHT22;55941;50.800;4.342;2022-08-27T14:46:34;24.00;75.80
34833;DHT22;55941;50.800;4.342;2022-08-27T14:49:06;24.00;75.90
34833;DHT22;55941;50.800;4.342;2022-08-27T14:51:34;24.00;76.70
34833;DHT22;55941;50.800;4.342;2022-08-27T14:54:02;24.10;75.60
34833;DHT22;55941;50.800;4.342;2022-08-27T14:56:28;24.00;76.20
34833;DHT22;55941;50.800;4.342;2022-08-27T14:58:54;24.20;75.40
34833;DHT22;55941;50.800;4.342;2022-08-27T15:01:22;24.20;75.90
34833;DHT22;55941;50.800;4.342;2022-08-27T15:03:49;24.30;73.50
34833;DHT22;55941;50.800;4.342;2022-08-27T15:06:17;24.20;73.90
34833;DHT22;55941;50.800;4.342;2022-08-27T15:08:43;24.30;73.30
34833;DHT22;55941;50.800;4.342;2022-08-27T15:11:21;24.30;73.80
34833;DHT22;55941;50.800;4.342;2022-08-27T15:13:49;24.30;73.50
34833;DHT22;55941;50.800;4.342;2022-08-27T15:16:25;24.30;72.90
34833;DHT22;55941;50.800;4.342;2022-08-27T15:18:50;24.40;72.50
34833;DHT22;55941;50.800;4.342;2022-08-27T15:21:16;24.30;73.10
34833;DHT22;55941;50.800;4.342;2022-08-27T15:23:44;24.40;73.10
34833;DHT22;55941;50.800;4.342;2022-08-27T15:26:12;24.30;74.10
34833;DHT22;55941;50.800;4.342;2022-08-27T15:28:38;24.30;73.40
34833;DHT22;55941;50.800;4.342;2022-08-27T15:31:04;24.40;73.00
34833;DHT22;55941;50.800;4.342;2022-08-27T15:33:30;24.50;72.90
34833;DHT22;55941;50.800;4.342;2022-08-27T15:35:56;24.40;73.30
34833;DHT22;55941;50.800;4.342;2022-08-27T15:38:22;24.40;73.30
34833;DHT22;55941;50.800;4.342;2022-08-27T15:40:48;24.30;73.70
34833;DHT22;55941;50.800;4.342;2022-08-27T15:43:14;24.20;74.10
34833;DHT22;55941;50.800;4.342;2022-08-27T15:45:41;24.20;73.70
34833;DHT22;55941;50.800;4.342;2022-08-27T15:48:07;24.30;73.20
34833;DHT22;55941;50.800;4.342;2022-08-27T15:50:33;24.30;73.00
34833;DHT22;55941;50.800;4.342;2022-08-27T15:53:02;24.20;74.10
34833;DHT22;55941;50.800;4.342;2022-08-27T15:55:35;24.10;74.00
34833;DHT22;55941;50.800;4.342;2022-08-27T15:58:02;24.00;74.10
34833;DHT22;55941;50.800;4.342;2022-08-27T16:00:29;24.00;73.50
34833;DHT22;55941;50.800;4.342;2022-08-27T16:02:57;24.00;74.10
34833;DHT22;55941;50.800;4.342;2022-08-27T16:05:23;23.90;73.50
34833;DHT22;55941;50.800;4.342;2022-08-27T16:07:50;23.90;72.60
34833;DHT22;55941;50.800;4.342;2022-08-27T16:10:17;23.90;72.90
34833;DHT22;55941;50.800;4.342;2022-08-27T16:12:43;24.00;71.90
34833;DHT22;55941;50.800;4.342;2022-08-27T16:15:09;24.00;72.00
34833;DHT22;55941;50.800;4.342;2022-08-27T16:17:38;24.00;70.80
34833;DHT22;55941;50.800;4.342;2022-08-27T16:20:07;24.10;70.70
34833;DHT22;55941;50.800;4.342;2022-08-27T16:22:33;24.00;71.00
34833;DHT22;55941;50.800;4.342;2022-08-27T16:25:00;23.90;71.20
34833;DHT22;55941;50.800;4.342;2022-08-27T16:27:29;23.90;72.00
34833;DHT22;55941;50.800;4.342;2022-08-27T16:29:55;24.00;72.20
34833;DHT22;55941;50.800;4.342;2022-08-27T16:32:20;24.00;72.10
34833;DHT22;55941;50.800;4.342;2022-08-27T16:34:46;24.10;72.50
34833;DHT22;55941;50.800;4.342;2022-08-27T16:37:13;24.00;72.90
34833;DHT22;55941;50.800;4.342;2022-08-27T16:39:38;23.80;73.80
34833;DHT22;55941;50.800;4.342;2022-08-27T16:42:04;23.80;74.30
34833;DHT22;55941;50.800;4.342;2022-08-27T16:44:33;23.80;74.80
34833;DHT22;55941;50.800;4.342;2022-08-27T16:46:59;23.90;74.40
34833;DHT22;55941;50.800;4.342;2022-08-27T16:49:25;23.70;75.60
34833;DHT22;55941;50.800;4.342;2022-08-27T16:52:16;23.70;75.80
34833;DHT22;55941;50.800;4.342;2022-08-27T16:54:42;23.80;76.00
34833;DHT22;55941;50.800;4.342;2022-08-27T16:57:08;23.80;75.80
34833;DHT22;55941;50.800;4.342;2022-08-27T16:59:34;23.80;75.40
34833;DHT22;55941;50.800;4.342;2022-08-27T17:02:00;23.90;74.70
34833;DHT22;55941;50.800;4.342;2022-08-27T17:04:26;23.80;75.10
34833;DHT22;55941;50.800;4.342;2022-08-27T17:06:52;23.80;75.40
34833;DHT22;55941;50.800;4.342;2022-08-27T17:09:20;23.80;75.50
34833;DHT22;55941;50.800;4.342;2022-08-27T17:11:52;23.70;75.70